Time;durP1;ratioP1;P1;durP2;ratioP2;P2;SDS_P1;SDS_P2;PMS_P1;PMS_P2;Temp;Humidity;BMP_temperature;BMP_pressure;BME280_temperature;BME280_humidity;BME280_pressure;Samples;Min_cycle;Max_cycle;Signal;HPM_P1;HPM_P2
2023/08/05 00:02:46;;;;;;;3.30;2.30;;;20.80;74.10;;;;;;10340347;28;20045;-57
2023/08/05 00:07:47;;;;;;;3.80;2.15;;;20.80;74.10;;;;;;10364620;28;20471;-57
2023/08/05 00:12:48;;;;;;;3.63;2.20;;;20.80;74.10;;;;;;10364445;28;20022;-57
2023/08/05 00:17:48;;;;;;;3.47;2.47;;;20.80;74.10;;;;;;10329897;28;20113;-57
2023/08/05 00:22:49;;;;;;;2.10;1.52;;;20.80;74.10;;;;;;10323183;28;20034;-56
2023/08/05 00:27:50;;;;;;;3.08;2.53;;;20.80;74.10;;;;;;10323316;28;20033;-57
2023/08/05 00:32:50;;;;;;;2.85;2.03;;;20.80;74.10;;;;;;10323610;28;20165;-56
2023/08/05 00:37:51;;;;;;;5.63;1.98;;;20.80;74.10;;;;;;10326846;28;20097;-57
2023/08/05 00:42:52;;;;;;;3.38;2.15;;;20.80;74.20;;;;;;10370143;28;20049;-57
2023/08/05 00:47:52;;;;;;;3.30;2.20;;;20.80;74.10;;;;;;10372710;28;20018;-57
2023/08/05 00:52:53;;;;;;;2.78;1.75;;;20.80;74.10;;;;;;10371551;28;20505;-57
2023/08/05 00:57:54;;;;;;;3.88;2.67;;;20.80;74.10;;;;;;10358065;28;20034;-56
2023/08/05 01:02:54;;;;;;;3.97;2.17;;;20.80;74.10;;;;;;10331232;28;20129;-57
2023/08/05 01:07:56;;;;;;;3.65;2.13;;;20.80;74.00;;;;;;10335120;28;20833;-57
2023/08/05 01:12:56;;;;;;;3.17;2.03;;;20.70;74.00;;;;;;10369420;28;20026;-56
2023/08/05 01:17:58;;;;;;;3.00;2.13;;;20.70;74.00;;;;;;10342595;28;20030;-57
2023/08/05 01:23:07;;;;;;;3.25;2.17;;;20.70;74.00;;;;;;10329757;28;20180;-57
2023/08/05 01:28:09;;;;;;;3.30;2.67;;;20.70;74.00;;;;;;10328674;28;20011;-57
2023/08/05 01:33:12;;;;;;;3.10;2.53;;;20.70;74.00;;;;;;10329553;28;20115;-56
2023/08/05 01:38:13;;;;;;;2.75;2.30;;;20.70;74.00;;;;;;10328061;28;20369;-57
2023/08/05 01:43:13;;;;;;;4.45;2.30;;;20.70;74.10;;;;;;10327790;28;20065;-57
2023/08/05 01:48:14;;;;;;;3.50;2.50;;;20.70;74.00;;;;;;10329005;28;20427;-57
2023/08/05 01:53:15;;;;;;;4.50;2.30;;;20.70;73.90;;;;;;10332800;28;20049;-56
2023/08/05 01:58:15;;;;;;;2.40;2.15;;;20.70;73.90;;;;;;10337037;28;20039;-57
2023/08/05 02:03:16;;;;;;;3.17;2.20;;;20.70;73.90;;;;;;10328218;28;20110;-57
2023/08/05 02:08:17;;;;;;;3.03;1.90;;;20.70;73.90;;;;;;10328294;28;20055;-56
2023/08/05 02:13:17;;;;;;;3.35;2.53;;;20.70;73.90;;;;;;10328113;28;20126;-57
2023/08/05 02:18:18;;;;;;;3.08;2.20;;;20.70;73.90;;;;;;10366220;28;20083;-57
2023/08/05 02:23:19;;;;;;;3.42;2.22;;;20.70;74.00;;;;;;10368305;28;20034;-57
2023/08/05 02:28:19;;;;;;;2.85;1.90;;;20.70;73.90;;;;;;10367869;28;20104;-56
2023/08/05 02:33:20;;;;;;;3.97;2.70;;;20.70;73.90;;;;;;10367849;28;20073;-56
2023/08/05 02:38:21;;;;;;;3.88;2.45;;;20.70;73.90;;;;;;10365893;28;20058;-57
2023/08/05 02:43:22;;;;;;;3.70;2.33;;;20.70;73.90;;;;;;10366832;28;20416;-57
2023/08/05 02:48:24;;;;;;;4.22;2.53;;;20.60;73.90;;;;;;10367099;28;20056;-57
2023/08/05 02:53:25;;;;;;;3.20;2.13;;;20.70;73.90;;;;;;10367058;28;20410;-56
2023/08/05 02:58:26;;;;;;;2.65;2.15;;;20.60;73.90;;;;;;10333621;28;20034;-57
2023/08/05 03:03:27;;;;;;;4.28;2.28;;;20.60;73.90;;;;;;10325691;28;20374;-57
2023/08/05 03:08:28;;;;;;;2.40;2.05;;;20.60;73.80;;;;;;10326020;28;20402;-56
2023/08/05 03:13:28;;;;;;;3.38;2.17;;;20.60;73.80;;;;;;10326174;28;20030;-56
2023/08/05 03:18:29;;;;;;;3.17;2.22;;;20.60;73.80;;;;;;10339861;28;20026;-57
2023/08/05 03:23:30;;;;;;;3.03;2.13;;;20.60;73.90;;;;;;10325253;28;20096;-56
2023/08/05 03:28:30;;;;;;;3.38;2.00;;;20.60;73.80;;;;;;10325047;28;20021;-57
2023/08/05 03:33:31;;;;;;;3.28;2.55;;;20.60;73.90;;;;;;10325004;28;20022;-56
2023/08/05 03:38:32;;;;;;;3.92;2.22;;;20.60;73.80;;;;;;10324828;28;20113;-57
2023/08/05 03:43:32;;;;;;;2.90;2.17;;;20.60;73.80;;;;;;10324500;28;20131;-57
2023/08/05 03:48:33;;;;;;;3.60;2.33;;;20.60;73.80;;;;;;10323046;28;20070;-57
2023/08/05 03:53:35;;;;;;;3.08;2.10;;;20.60;73.80;;;;;;10331631;28;20109;-57
2023/08/05 03:58:36;;;;;;;2.80;2.30;;;20.60;73.80;;;;;;10351426;28;20055;-57
2023/08/05 04:03:36;;;;;;;2.95;2.40;;;20.60;73.80;;;;;;10357705;28;20565;-56
2023/08/05 04:08:38;;;;;;;2.75;1.80;;;20.60;73.80;;;;;;10359810;28;20064;-56
2023/08/05 04:13:39;;;;;;;2.28;1.88;;;20.60;73.80;;;;;;10357234;28;20473;-57
2023/08/05 04:18:42;;;;;;;3.63;2.97;;;20.50;73.70;;;;;;10359501;28;20040;-56
2023/08/05 04:23:43;;;;;;;4.15;2.05;;;20.50;73.70;;;;;;10358479;28;20604;-57
2023/08/05 04:28:44;;;;;;;2.78;2.30;;;20.60;73.70;;;;;;10326431;28;20476;-57
2023/08/05 04:33:46;;;;;;;2.97;2.30;;;20.50;73.70;;;;;;10358644;28;20113;-57
2023/08/05 04:38:47;;;;;;;3.63;2.35;;;20.60;73.80;;;;;;10353302;28;20550;-57
2023/08/05 04:43:48;;;;;;;2.88;2.50;;;20.50;74.30;;;;;;10323162;28;20121;-57
2023/08/05 04:48:48;;;;;;;4.60;2.10;;;20.60;73.70;;;;;;10338358;28;20449;-57
2023/08/05 04:53:49;;;;;;;3.50;2.53;;;20.50;73.60;;;;;;10337474;28;20018;-56
2023/08/05 04:58:50;;;;;;;3.13;2.42;;;20.50;73.60;;;;;;10327588;28;20032;-57
2023/08/05 05:03:51;;;;;;;2.97;2.50;;;20.50;73.60;;;;;;10322953;28;20031;-57
2023/08/05 05:08:52;;;;;;;3.03;2.45;;;20.60;74.10;;;;;;10323291;28;20122;-57
2023/08/05 05:13:52;;;;;;;4.07;3.10;;;20.60;73.60;;;;;;10325481;28;20022;-57
2023/08/05 05:18:53;;;;;;;4.97;2.83;;;20.60;73.70;;;;;;10363870;28;20125;-59
2023/08/05 05:23:54;;;;;;;4.25;3.40;;;20.60;73.80;;;;;;10364488;28;20034;-57
2023/08/05 05:28:55;;;;;;;6.80;3.28;;;20.60;73.80;;;;;;10370737;28;20056;-56
2023/08/05 05:33:56;;;;;;;5.85;3.22;;;20.70;74.60;;;;;;10343162;28;20022;-57
2023/08/05 05:38:57;;;;;;;9.57;3.30;;;20.80;74.20;;;;;;10329896;28;20062;-57
2023/08/05 05:43:58;;;;;;;8.45;3.88;;;20.80;74.30;;;;;;10329475;28;20117;-57
2023/08/05 05:48:59;;;;;;;7.22;3.00;;;20.90;74.30;;;;;;10329451;28;20796;-58
2023/08/05 05:54:00;;;;;;;14.73;3.83;;;20.90;74.00;;;;;;10339959;28;20150;-57
2023/08/05 05:59:01;;;;;;;10.18;3.13;;;20.90;73.90;;;;;;10331752;28;20104;-57
2023/08/05 06:04:04;;;;;;;6.93;3.42;;;20.90;74.40;;;;;;10328683;28;20129;-57
2023/08/05 06:09:05;;;;;;;6.13;3.40;;;20.90;74.00;;;;;;10316765;28;20038;-57
2023/08/05 06:14:06;;;;;;;7.90;3.22;;;20.90;74.20;;;;;;10352801;28;20027;-57
2023/08/05 06:19:07;;;;;;;7.28;2.90;;;20.90;74.30;;;;;;10352360;28;20065;-58
2023/08/05 06:24:07;;;;;;;8.13;3.42;;;20.90;74.20;;;;;;10355087;28;20192;-60
2023/08/05 06:29:08;;;;;;;10.35;3.58;;;20.90;74.60;;;;;;10350080;28;20101;-56
2023/08/05 06:34:09;;;;;;;7.65;3.75;;;21.00;75.10;;;;;;10343653;28;20438;-58
2023/08/05 06:39:09;;;;;;;12.15;4.55;;;21.00;75.00;;;;;;10362419;28;20125;-59
2023/08/05 06:44:10;;;;;;;17.75;4.88;;;21.00;74.50;;;;;;10362573;28;20114;-57
2023/08/05 06:49:11;;;;;;;14.27;4.45;;;20.90;75.00;;;;;;10361636;28;20100;-58
2023/08/05 06:54:11;;;;;;;14.75;4.75;;;20.90;74.90;;;;;;10353588;28;20112;-58
2023/08/05 06:59:12;;;;;;;13.18;4.53;;;20.90;74.90;;;;;;10327205;28;20080;-57
2023/08/05 07:04:14;;;;;;;14.23;4.15;;;20.90;74.80;;;;;;10326075;28;20035;-60
2023/08/05 07:09:14;;;;;;;13.38;4.95;;;20.90;74.90;;;;;;10337495;28;20021;-58
2023/08/05 07:14:15;;;;;;;17.45;5.63;;;20.90;75.20;;;;;;10359326;28;20049;-57
2023/08/05 07:19:16;;;;;;;12.65;4.45;;;20.90;74.70;;;;;;10364814;28;20068;-59
2023/08/05 07:24:20;;;;;;;18.92;6.05;;;20.90;74.70;;;;;;10363766;28;20038;-56
2023/08/05 07:29:21;;;;;;;19.15;5.10;;;21.00;74.50;;;;;;10366354;28;20393;-57
2023/08/05 07:34:22;;;;;;;13.70;5.47;;;21.00;74.50;;;;;;10362324;28;20117;-57
2023/08/05 07:39:24;;;;;;;9.85;5.40;;;20.90;74.30;;;;;;10358518;28;20382;-57
2023/08/05 07:44:24;;;;;;;8.50;3.83;;;20.90;74.40;;;;;;10339539;28;20135;-58
2023/08/05 07:49:26;;;;;;;10.80;5.10;;;20.90;74.50;;;;;;10331416;28;20164;-57
2023/08/05 07:54:27;;;;;;;11.75;4.25;;;20.80;74.50;;;;;;10359902;28;20022;-56
2023/08/05 07:59:28;;;;;;;8.27;3.60;;;20.80;74.40;;;;;;10362300;28;20101;-57
2023/08/05 08:04:30;;;;;;;4.95;3.00;;;20.80;73.90;;;;;;10364393;28;20095;-57
2023/08/05 08:09:31;;;;;;;5.80;3.45;;;20.80;74.00;;;;;;10362638;28;20026;-55
2023/08/05 08:14:31;;;;;;;7.07;3.30;;;20.80;74.60;;;;;;10360734;28;20049;-57
2023/08/05 08:19:32;;;;;;;5.43;3.55;;;20.80;73.90;;;;;;10364557;28;20496;-57
2023/08/05 08:24:33;;;;;;;7.40;3.55;;;20.90;73.90;;;;;;10360825;28;20113;-56
2023/08/05 08:29:34;;;;;;;5.45;3.65;;;20.80;73.40;;;;;;10362642;28;20049;-57
2023/08/05 08:34:34;;;;;;;6.70;3.42;;;20.80;73.10;;;;;;10364396;28;20046;-57
2023/08/05 08:39:35;;;;;;;6.40;3.50;;;20.80;73.60;;;;;;10364021;28;20116;-57
2023/08/05 08:44:36;;;;;;;8.45;4.03;;;20.80;73.50;;;;;;10363984;28;20586;-57
2023/08/05 08:49:37;;;;;;;6.00;3.40;;;20.90;73.10;;;;;;10362606;28;20022;-57
2023/08/05 08:54:38;;;;;;;6.78;3.83;;;21.10;72.70;;;;;;10361532;28;20457;-57
2023/08/05 08:59:40;;;;;;;12.63;4.93;;;21.20;72.70;;;;;;10327163;28;20084;-59
2023/08/05 09:04:42;;;;;;;7.15;4.05;;;21.30;72.80;;;;;;10330748;28;20026;-60
2023/08/05 09:09:49;;;;;;;10.48;4.53;;;21.30;72.80;;;;;;10330878;28;20583;-58
2023/08/05 09:14:53;;;;;;;10.48;4.38;;;21.30;72.90;;;;;;10340781;28;20022;-58
2023/08/05 09:19:54;;;;;;;13.05;5.13;;;21.30;72.80;;;;;;10370916;28;20096;-59
2023/08/05 09:25:00;;;;;;;12.30;5.50;;;21.30;72.10;;;;;;10370719;28;20138;-56
2023/08/05 09:30:21;;;;;;;15.15;4.35;;;21.50;72.30;;;;;;10367367;28;20018;-57
2023/08/05 09:35:23;;;;;;;11.10;4.63;;;21.40;72.70;;;;;;10349725;28;20022;-57
2023/08/05 09:40:28;;;;;;;11.65;4.55;;;21.40;72.60;;;;;;10343011;28;20107;-57
2023/08/05 09:45:32;;;;;;;10.05;4.20;;;21.30;72.60;;;;;;10346837;28;20038;-55
2023/08/05 09:50:37;;;;;;;9.90;3.90;;;21.20;72.20;;;;;;10351774;28;20176;-56
2023/08/05 09:55:38;;;;;;;8.40;3.95;;;21.20;72.40;;;;;;10358761;28;20023;-57
2023/08/05 10:00:42;;;;;;;6.50;3.95;;;21.20;72.20;;;;;;10334138;28;20025;-56
2023/08/05 10:05:44;;;;;;;6.30;4.07;;;21.20;72.30;;;;;;10366440;28;20034;-55
2023/08/05 10:10:46;;;;;;;7.80;3.40;;;21.20;72.20;;;;;;10367155;28;20435;-56
2023/08/05 10:15:51;;;;;;;15.70;4.50;;;21.20;72.60;;;;;;10349830;28;20068;-56
2023/08/05 10:20:52;;;;;;;7.97;4.10;;;21.30;72.50;;;;;;10326815;28;20481;-57
2023/08/05 10:26:00;;;;;;;7.72;4.03;;;21.40;72.60;;;;;;10327613;28;20019;-57
2023/08/05 10:31:06;;;;;;;9.40;4.65;;;21.50;72.50;;;;;;10348153;28;20052;-57
2023/08/05 10:36:07;;;;;;;9.18;4.22;;;21.50;72.50;;;;;;10367826;28;20034;-58
2023/08/05 10:41:10;;;;;;;9.57;4.18;;;21.60;72.60;;;;;;10367287;28;20468;-56
2023/08/05 10:46:12;;;;;;;9.50;3.47;;;21.50;72.70;;;;;;10367938;28;20891;-57
2023/08/05 10:51:22;;;;;;;10.55;4.97;;;21.60;72.70;;;;;;10366694;28;20030;-57
2023/08/05 10:56:33;;;;;;;9.68;4.72;;;21.50;72.80;;;;;;10363991;28;20019;-56
2023/08/05 11:01:55;;;;;;;8.85;4.00;;;21.40;73.00;;;;;;10361194;28;20063;-56
2023/08/05 11:06:59;;;;;;;13.98;5.15;;;21.30;72.90;;;;;;10363542;28;20018;-55
